sensor_id;sensor_type;location;lat;lon;timestamp;P1;durP1;ratioP1;P2;durP2;ratioP2
3689;SDS011;1861;50.240;8.596;2023-02-11T00:01:42;19.83;;;10.80;;
3689;SDS011;1861;50.240;8.596;2023-02-11T00:04:10;22.67;;;11.13;;
3689;SDS011;1861;50.240;8.596;2023-02-11T00:06:38;21.27;;;11.33;;
3689;SDS011;1861;50.240;8.596;2023-02-11T00:09:06;25.10;;;11.83;;
3689;SDS011;1861;50.240;8.596;2023-02-11T00:11:34;25.40;;;11.17;;
3689;SDS011;1861;50.240;8.596;2023-02-11T00:14:03;23.03;;;10.43;;
3689;SDS011;1861;50.240;8.596;2023-02-11T00:16:33;25.63;;;10.23;;
3689;SDS011;1861;50.240;8.596;2023-02-11T00:19:02;23.27;;;11.53;;
3689;SDS011;1861;50.240;8.596;2023-02-11T00:21:32;22.07;;;10.60;;
3689;SDS011;1861;50.240;8.596;2023-02-11T00:24:00;23.00;;;9.43;;
3689;SDS011;1861;50.240;8.596;2023-02-11T00:26:29;20.83;;;10.50;;
3689;SDS011;1861;50.240;8.596;2023-02-11T00:28:58;24.63;;;12.23;;
3689;SDS011;1861;50.240;8.596;2023-02-11T00:31:30;25.20;;;11.20;;
3689;SDS011;1861;50.240;8.596;2023-02-11T00:33:58;21.33;;;11.13;;
3689;SDS011;1861;50.240;8.596;2023-02-11T00:36:28;21.57;;;11.60;;
3689;SDS011;1861;50.240;8.596;2023-02-11T00:38:56;21.83;;;12.73;;
3689;SDS011;1861;50.240;8.596;2023-02-11T00:41:26;27.37;;;12.87;;
3689;SDS011;1861;50.240;8.596;2023-02-11T00:43:57;31.57;;;13.90;;
3689;SDS011;1861;50.240;8.596;2023-02-11T00:46:26;31.50;;;13.83;;
3689;SDS011;1861;50.240;8.596;2023-02-11T00:48:54;27.60;;;13.33;;
3689;SDS011;1861;50.240;8.596;2023-02-11T00:51:23;32.63;;;14.23;;
3689;SDS011;1861;50.240;8.596;2023-02-11T00:53:53;32.70;;;15.67;;
3689;SDS011;1861;50.240;8.596;2023-02-11T00:56:21;29.33;;;14.23;;
3689;SDS011;1861;50.240;8.596;2023-02-11T00:58:49;27.83;;;13.73;;
3689;SDS011;1861;50.240;8.596;2023-02-11T01:01:18;28.97;;;14.37;;
3689;SDS011;1861;50.240;8.596;2023-02-11T01:03:47;24.20;;;13.00;;
3689;SDS011;1861;50.240;8.596;2023-02-11T01:06:15;34.53;;;13.57;;
3689;SDS011;1861;50.240;8.596;2023-02-11T01:08:43;27.73;;;12.90;;
3689;SDS011;1861;50.240;8.596;2023-02-11T01:11:14;28.23;;;13.90;;
3689;SDS011;1861;50.240;8.596;2023-02-11T01:13:44;28.03;;;13.50;;
3689;SDS011;1861;50.240;8.596;2023-02-11T01:16:14;30.63;;;14.53;;
3689;SDS011;1861;50.240;8.596;2023-02-11T01:18:44;33.67;;;16.00;;
3689;SDS011;1861;50.240;8.596;2023-02-11T01:21:12;32.50;;;15.13;;
3689;SDS011;1861;50.240;8.596;2023-02-11T01:23:41;29.67;;;15.10;;
3689;SDS011;1861;50.240;8.596;2023-02-11T01:26:10;31.97;;;16.63;;
3689;SDS011;1861;50.240;8.596;2023-02-11T01:28:39;36.03;;;16.50;;
3689;SDS011;1861;50.240;8.596;2023-02-11T01:31:07;43.60;;;17.17;;
3689;SDS011;1861;50.240;8.596;2023-02-11T01:33:36;33.20;;;15.70;;
3689;SDS011;1861;50.240;8.596;2023-02-11T01:36:05;30.63;;;16.63;;
3689;SDS011;1861;50.240;8.596;2023-02-11T01:38:33;41.97;;;16.70;;
3689;SDS011;1861;50.240;8.596;2023-02-11T01:41:03;37.07;;;17.37;;
3689;SDS011;1861;50.240;8.596;2023-02-11T01:43:34;34.73;;;16.57;;
3689;SDS011;1861;50.240;8.596;2023-02-11T01:46:19;39.27;;;17.57;;
3689;SDS011;1861;50.240;8.596;2023-02-11T01:49:00;33.43;;;18.00;;
3689;SDS011;1861;50.240;8.596;2023-02-11T01:51:32;33.17;;;17.37;;
3689;SDS011;1861;50.240;8.596;2023-02-11T01:54:04;44.03;;;21.43;;
3689;SDS011;1861;50.240;8.596;2023-02-11T01:56:51;35.53;;;17.30;;
3689;SDS011;1861;50.240;8.596;2023-02-11T01:59:40;31.97;;;17.60;;
3689;SDS011;1861;50.240;8.596;2023-02-11T02:02:13;34.77;;;19.10;;
3689;SDS011;1861;50.240;8.596;2023-02-11T02:04:45;32.33;;;18.23;;
3689;SDS011;1861;50.240;8.596;2023-02-11T02:07:20;37.83;;;17.17;;
3689;SDS011;1861;50.240;8.596;2023-02-11T02:09:54;36.13;;;17.00;;
3689;SDS011;1861;50.240;8.596;2023-02-11T02:12:28;28.07;;;16.20;;
3689;SDS011;1861;50.240;8.596;2023-02-11T02:18:02;36.70;;;16.70;;
3689;SDS011;1861;50.240;8.596;2023-02-11T02:20:58;35.80;;;17.50;;
3689;SDS011;1861;50.240;8.596;2023-02-11T02:23:50;30.20;;;15.87;;
3689;SDS011;1861;50.240;8.596;2023-02-11T02:26:53;30.00;;;15.10;;
3689;SDS011;1861;50.240;8.596;2023-02-11T02:32:43;31.37;;;15.83;;
3689;SDS011;1861;50.240;8.596;2023-02-11T02:35:39;30.97;;;15.60;;
3689;SDS011;1861;50.240;8.596;2023-02-11T02:38:12;36.30;;;16.10;;
3689;SDS011;1861;50.240;8.596;2023-02-11T02:40:45;34.43;;;17.03;;
3689;SDS011;1861;50.240;8.596;2023-02-11T02:43:17;33.83;;;15.93;;
3689;SDS011;1861;50.240;8.596;2023-02-11T02:45:45;34.73;;;16.10;;
3689;SDS011;1861;50.240;8.596;2023-02-11T02:48:23;32.33;;;16.63;;
3689;SDS011;1861;50.240;8.596;2023-02-11T02:50:55;33.27;;;16.17;;
3689;SDS011;1861;50.240;8.596;2023-02-11T02:53:31;36.37;;;18.07;;
3689;SDS011;1861;50.240;8.596;2023-02-11T02:56:08;32.23;;;16.53;;
3689;SDS011;1861;50.240;8.596;2023-02-11T02:58:51;36.40;;;17.30;;
3689;SDS011;1861;50.240;8.596;2023-02-11T03:01:30;37.13;;;16.50;;
3689;SDS011;1861;50.240;8.596;2023-02-11T03:04:10;37.87;;;17.53;;
3689;SDS011;1861;50.240;8.596;2023-02-11T03:06:45;37.83;;;17.20;;
3689;SDS011;1861;50.240;8.596;2023-02-11T03:09:19;36.77;;;17.23;;
3689;SDS011;1861;50.240;8.596;2023-02-11T03:11:50;32.43;;;16.47;;
3689;SDS011;1861;50.240;8.596;2023-02-11T03:14:18;36.70;;;17.03;;
3689;SDS011;1861;50.240;8.596;2023-02-11T03:16:48;30.43;;;16.03;;
3689;SDS011;1861;50.240;8.596;2023-02-11T03:19:20;36.20;;;16.10;;
3689;SDS011;1861;50.240;8.596;2023-02-11T03:21:50;38.00;;;16.60;;
3689;SDS011;1861;50.240;8.596;2023-02-11T03:24:20;44.30;;;17.87;;
3689;SDS011;1861;50.240;8.596;2023-02-11T03:26:53;33.07;;;17.10;;
3689;SDS011;1861;50.240;8.596;2023-02-11T03:29:25;32.73;;;16.30;;
3689;SDS011;1861;50.240;8.596;2023-02-11T03:31:59;38.07;;;16.40;;
3689;SDS011;1861;50.240;8.596;2023-02-11T03:34:35;41.10;;;19.43;;
3689;SDS011;1861;50.240;8.596;2023-02-11T03:37:09;30.97;;;16.00;;
3689;SDS011;1861;50.240;8.596;2023-02-11T03:39:43;33.30;;;16.90;;
3689;SDS011;1861;50.240;8.596;2023-02-11T03:42:14;36.90;;;16.53;;
3689;SDS011;1861;50.240;8.596;2023-02-11T03:44:44;32.20;;;15.73;;
3689;SDS011;1861;50.240;8.596;2023-02-11T03:47:17;33.90;;;15.40;;
3689;SDS011;1861;50.240;8.596;2023-02-11T03:49:50;38.70;;;16.43;;
3689;SDS011;1861;50.240;8.596;2023-02-11T03:52:21;37.23;;;17.10;;
3689;SDS011;1861;50.240;8.596;2023-02-11T03:54:52;34.70;;;17.10;;
3689;SDS011;1861;50.240;8.596;2023-02-11T03:57:22;34.33;;;16.67;;
3689;SDS011;1861;50.240;8.596;2023-02-11T03:59:51;35.60;;;17.03;;
3689;SDS011;1861;50.240;8.596;2023-02-11T04:02:21;40.43;;;17.23;;
3689;SDS011;1861;50.240;8.596;2023-02-11T04:04:52;30.50;;;16.43;;
3689;SDS011;1861;50.240;8.596;2023-02-11T04:07:21;37.93;;;18.17;;
3689;SDS011;1861;50.240;8.596;2023-02-11T04:09:49;29.47;;;16.13;;
3689;SDS011;1861;50.240;8.596;2023-02-11T04:12:17;34.90;;;17.33;;
3689;SDS011;1861;50.240;8.596;2023-02-11T04:14:46;38.13;;;17.30;;
3689;SDS011;1861;50.240;8.596;2023-02-11T04:17:14;35.57;;;16.90;;
3689;SDS011;1861;50.240;8.596;2023-02-11T04:19:42;37.40;;;17.83;;
3689;SDS011;1861;50.240;8.596;2023-02-11T04:22:11;38.30;;;17.43;;
3689;SDS011;1861;50.240;8.596;2023-02-11T04:24:39;38.60;;;18.37;;
3689;SDS011;1861;50.240;8.596;2023-02-11T04:27:09;39.73;;;16.53;;
3689;SDS011;1861;50.240;8.596;2023-02-11T04:29:37;35.50;;;17.07;;
3689;SDS011;1861;50.240;8.596;2023-02-11T04:32:05;35.70;;;17.10;;
3689;SDS011;1861;50.240;8.596;2023-02-11T04:34:33;36.80;;;17.90;;
3689;SDS011;1861;50.240;8.596;2023-02-11T04:37:01;40.80;;;18.40;;
3689;SDS011;1861;50.240;8.596;2023-02-11T04:39:31;38.60;;;18.63;;
3689;SDS011;1861;50.240;8.596;2023-02-11T04:41:59;35.67;;;18.00;;
3689;SDS011;1861;50.240;8.596;2023-02-11T04:44:27;37.50;;;17.67;;
3689;SDS011;1861;50.240;8.596;2023-02-11T04:46:55;35.60;;;16.67;;
3689;SDS011;1861;50.240;8.596;2023-02-11T04:49:23;33.73;;;15.87;;
3689;SDS011;1861;50.240;8.596;2023-02-11T04:51:52;33.23;;;17.70;;
3689;SDS011;1861;50.240;8.596;2023-02-11T04:54:20;40.47;;;18.87;;
3689;SDS011;1861;50.240;8.596;2023-02-11T04:56:49;35.70;;;17.70;;
3689;SDS011;1861;50.240;8.596;2023-02-11T04:59:17;45.80;;;20.07;;
3689;SDS011;1861;50.240;8.596;2023-02-11T05:01:45;41.53;;;19.07;;
3689;SDS011;1861;50.240;8.596;2023-02-11T05:04:14;39.53;;;19.87;;
3689;SDS011;1861;50.240;8.596;2023-02-11T05:06:43;42.97;;;19.00;;
3689;SDS011;1861;50.240;8.596;2023-02-11T05:09:11;37.33;;;18.47;;
3689;SDS011;1861;50.240;8.596;2023-02-11T05:11:40;36.80;;;18.70;;
3689;SDS011;1861;50.240;8.596;2023-02-11T05:14:09;39.63;;;17.90;;
3689;SDS011;1861;50.240;8.596;2023-02-11T05:16:37;39.13;;;18.60;;
3689;SDS011;1861;50.240;8.596;2023-02-11T05:19:05;38.60;;;18.87;;
3689;SDS011;1861;50.240;8.596;2023-02-11T05:21:33;37.83;;;17.30;;
3689;SDS011;1861;50.240;8.596;2023-02-11T05:24:01;41.87;;;19.33;;
3689;SDS011;1861;50.240;8.596;2023-02-11T05:26:30;39.83;;;18.97;;
3689;SDS011;1861;50.240;8.596;2023-02-11T05:28:58;38.37;;;19.37;;
3689;SDS011;1861;50.240;8.596;2023-02-11T05:31:28;37.00;;;17.80;;
3689;SDS011;1861;50.240;8.596;2023-02-11T05:33:56;42.67;;;18.00;;
3689;SDS011;1861;50.240;8.596;2023-02-11T05:36:24;38.80;;;19.13;;
3689;SDS011;1861;50.240;8.596;2023-02-11T05:38:52;36.37;;;17.97;;
3689;SDS011;1861;50.240;8.596;2023-02-11T05:41:20;36.27;;;17.90;;
3689;SDS011;1861;50.240;8.596;2023-02-11T05:43:48;34.40;;;18.07;;
3689;SDS011;1861;50.240;8.596;2023-02-11T05:46:17;41.00;;;17.43;;
3689;SDS011;1861;50.240;8.596;2023-02-11T05:48:46;34.73;;;17.43;;
3689;SDS011;1861;50.240;8.596;2023-02-11T05:51:14;39.30;;;18.93;;
3689;SDS011;1861;50.240;8.596;2023-02-11T05:53:42;44.10;;;19.70;;
3689;SDS011;1861;50.240;8.596;2023-02-11T05:56:10;38.17;;;18.20;;
3689;SDS011;1861;50.240;8.596;2023-02-11T05:58:39;38.53;;;18.73;;
3689;SDS011;1861;50.240;8.596;2023-02-11T06:01:07;38.90;;;19.60;;
3689;SDS011;1861;50.240;8.596;2023-02-11T06:03:36;41.97;;;18.93;;
3689;SDS011;1861;50.240;8.596;2023-02-11T06:06:07;42.50;;;19.20;;
3689;SDS011;1861;50.240;8.596;2023-02-11T06:08:36;41.13;;;19.47;;
3689;SDS011;1861;50.240;8.596;2023-02-11T06:11:05;44.33;;;19.57;;
3689;SDS011;1861;50.240;8.596;2023-02-11T06:13:33;38.00;;;18.53;;
3689;SDS011;1861;50.240;8.596;2023-02-11T06:16:02;41.63;;;18.90;;
3689;SDS011;1861;50.240;8.596;2023-02-11T06:18:30;35.60;;;18.83;;
3689;SDS011;1861;50.240;8.596;2023-02-11T06:20:59;37.53;;;19.00;;
3689;SDS011;1861;50.240;8.596;2023-02-11T06:23:28;36.90;;;19.30;;
3689;SDS011;1861;50.240;8.596;2023-02-11T06:25:59;41.90;;;18.90;;
3689;SDS011;1861;50.240;8.596;2023-02-11T06:28:28;48.23;;;19.83;;
3689;SDS011;1861;50.240;8.596;2023-02-11T06:30:57;37.10;;;18.00;;
3689;SDS011;1861;50.240;8.596;2023-02-11T06:33:32;44.23;;;19.60;;
3689;SDS011;1861;50.240;8.596;2023-02-11T06:36:00;39.50;;;19.27;;
3689;SDS011;1861;50.240;8.596;2023-02-11T06:38:30;39.77;;;18.70;;
3689;SDS011;1861;50.240;8.596;2023-02-11T06:40:58;41.70;;;20.63;;
3689;SDS011;1861;50.240;8.596;2023-02-11T06:43:26;37.23;;;18.80;;
3689;SDS011;1861;50.240;8.596;2023-02-11T06:45:54;47.17;;;18.73;;
3689;SDS011;1861;50.240;8.596;2023-02-11T06:48:22;42.20;;;21.20;;
3689;SDS011;1861;50.240;8.596;2023-02-11T06:50:50;38.47;;;19.47;;
3689;SDS011;1861;50.240;8.596;2023-02-11T06:53:18;39.00;;;20.10;;
3689;SDS011;1861;50.240;8.596;2023-02-11T06:55:48;41.93;;;19.50;;
3689;SDS011;1861;50.240;8.596;2023-02-11T06:58:16;45.03;;;20.70;;
3689;SDS011;1861;50.240;8.596;2023-02-11T07:00:44;34.40;;;18.63;;
3689;SDS011;1861;50.240;8.596;2023-02-11T07:03:12;43.03;;;19.43;;
3689;SDS011;1861;50.240;8.596;2023-02-11T07:05:41;37.30;;;19.30;;
3689;SDS011;1861;50.240;8.596;2023-02-11T07:08:09;37.97;;;18.60;;
3689;SDS011;1861;50.240;8.596;2023-02-11T07:10:37;40.53;;;20.00;;
3689;SDS011;1861;50.240;8.596;2023-02-11T07:13:06;35.50;;;17.53;;
3689;SDS011;1861;50.240;8.596;2023-02-11T07:15:35;36.17;;;18.40;;
3689;SDS011;1861;50.240;8.596;2023-02-11T07:18:03;37.13;;;18.60;;
3689;SDS011;1861;50.240;8.596;2023-02-11T07:20:31;34.10;;;18.40;;
3689;SDS011;1861;50.240;8.596;2023-02-11T07:23:00;40.30;;;19.17;;
3689;SDS011;1861;50.240;8.596;2023-02-11T07:25:28;40.73;;;18.90;;
3689;SDS011;1861;50.240;8.596;2023-02-11T07:27:56;34.63;;;17.40;;
3689;SDS011;1861;50.240;8.596;2023-02-11T07:30:25;34.97;;;16.63;;
3689;SDS011;1861;50.240;8.596;2023-02-11T07:32:54;42.17;;;18.40;;
3689;SDS011;1861;50.240;8.596;2023-02-11T07:35:23;33.13;;;17.87;;
3689;SDS011;1861;50.240;8.596;2023-02-11T07:37:51;31.20;;;17.53;;
3689;SDS011;1861;50.240;8.596;2023-02-11T07:40:19;34.83;;;18.27;;
3689;SDS011;1861;50.240;8.596;2023-02-11T07:42:47;35.77;;;17.33;;
3689;SDS011;1861;50.240;8.596;2023-02-11T07:45:15;31.03;;;16.37;;
3689;SDS011;1861;50.240;8.596;2023-02-11T07:47:45;38.57;;;17.97;;
3689;SDS011;1861;50.240;8.596;2023-02-11T07:50:13;37.50;;;17.27;;
3689;SDS011;1861;50.240;8.596;2023-02-11T07:52:42;32.73;;;16.57;;
3689;SDS011;1861;50.240;8.596;2023-02-11T07:55:10;33.20;;;16.93;;
3689;SDS011;1861;50.240;8.596;2023-02-11T07:57:38;33.47;;;17.90;;
3689;SDS011;1861;50.240;8.596;2023-02-11T08:00:06;32.53;;;16.67;;
3689;SDS011;1861;50.240;8.596;2023-02-11T08:02:38;35.30;;;17.47;;
3689;SDS011;1861;50.240;8.596;2023-02-11T08:05:07;38.10;;;18.90;;
3689;SDS011;1861;50.240;8.596;2023-02-11T08:07:36;34.77;;;17.80;;
3689;SDS011;1861;50.240;8.596;2023-02-11T08:10:04;33.07;;;17.10;;
3689;SDS011;1861;50.240;8.596;2023-02-11T08:12:32;34.57;;;17.37;;
3689;SDS011;1861;50.240;8.596;2023-02-11T08:15:00;30.60;;;17.23;;
3689;SDS011;1861;50.240;8.596;2023-02-11T08:17:29;32.67;;;16.73;;
3689;SDS011;1861;50.240;8.596;2023-02-11T08:19:57;37.83;;;18.10;;
3689;SDS011;1861;50.240;8.596;2023-02-11T08:22:26;33.40;;;18.27;;
3689;SDS011;1861;50.240;8.596;2023-02-11T08:24:54;33.77;;;18.37;;
3689;SDS011;1861;50.240;8.596;2023-02-11T08:27:23;39.97;;;19.20;;
3689;SDS011;1861;50.240;8.596;2023-02-11T08:29:52;36.33;;;17.43;;
3689;SDS011;1861;50.240;8.596;2023-02-11T08:32:20;33.97;;;17.73;;
3689;SDS011;1861;50.240;8.596;2023-02-11T08:34:50;35.50;;;17.40;;
3689;SDS011;1861;50.240;8.596;2023-02-11T08:37:19;37.37;;;18.50;;
3689;SDS011;1861;50.240;8.596;2023-02-11T08:39:50;47.10;;;24.67;;
3689;SDS011;1861;50.240;8.596;2023-02-11T08:42:18;37.23;;;16.87;;
3689;SDS011;1861;50.240;8.596;2023-02-11T08:44:46;29.57;;;17.53;;
3689;SDS011;1861;50.240;8.596;2023-02-11T08:47:14;34.20;;;17.90;;
3689;SDS011;1861;50.240;8.596;2023-02-11T08:49:42;38.57;;;17.77;;
3689;SDS011;1861;50.240;8.596;2023-02-11T08:52:10;36.23;;;18.17;;
3689;SDS011;1861;50.240;8.596;2023-02-11T08:54:38;38.23;;;18.17;;
3689;SDS011;1861;50.240;8.596;2023-02-11T08:57:07;38.23;;;18.20;;
3689;SDS011;1861;50.240;8.596;2023-02-11T08:59:35;36.43;;;17.73;;
3689;SDS011;1861;50.240;8.596;2023-02-11T09:02:05;35.10;;;18.20;;
3689;SDS011;1861;50.240;8.596;2023-02-11T09:04:36;31.20;;;16.40;;
3689;SDS011;1861;50.240;8.596;2023-02-11T09:07:04;39.60;;;18.20;;
3689;SDS011;1861;50.240;8.596;2023-02-11T09:09:32;38.17;;;18.40;;
3689;SDS011;1861;50.240;8.596;2023-02-11T09:12:00;36.07;;;18.63;;
3689;SDS011;1861;50.240;8.596;2023-02-11T09:14:30;49.83;;;20.07;;
3689;SDS011;1861;50.240;8.596;2023-02-11T09:16:58;38.80;;;19.33;;
3689;SDS011;1861;50.240;8.596;2023-02-11T09:19:26;35.60;;;18.03;;
3689;SDS011;1861;50.240;8.596;2023-02-11T09:21:54;40.00;;;18.50;;
3689;SDS011;1861;50.240;8.596;2023-02-11T09:24:22;34.30;;;18.17;;
3689;SDS011;1861;50.240;8.596;2023-02-11T09:26:50;40.27;;;17.83;;
3689;SDS011;1861;50.240;8.596;2023-02-11T09:29:18;40.37;;;18.80;;
3689;SDS011;1861;50.240;8.596;2023-02-11T09:31:47;44.83;;;19.93;;
3689;SDS011;1861;50.240;8.596;2023-02-11T09:34:16;32.47;;;16.53;;
3689;SDS011;1861;50.240;8.596;2023-02-11T09:36:44;38.70;;;18.50;;
3689;SDS011;1861;50.240;8.596;2023-02-11T09:39:13;41.23;;;20.00;;
3689;SDS011;1861;50.240;8.596;2023-02-11T09:41:53;32.73;;;17.13;;
3689;SDS011;1861;50.240;8.596;2023-02-11T09:44:37;35.90;;;17.90;;
3689;SDS011;1861;50.240;8.596;2023-02-11T09:47:19;39.53;;;18.30;;
3689;SDS011;1861;50.240;8.596;2023-02-11T09:49:52;34.27;;;17.80;;
3689;SDS011;1861;50.240;8.596;2023-02-11T09:52:29;33.37;;;17.30;;
3689;SDS011;1861;50.240;8.596;2023-02-11T09:55:02;30.93;;;16.60;;
3689;SDS011;1861;50.240;8.596;2023-02-11T09:57:37;32.77;;;16.93;;
3689;SDS011;1861;50.240;8.596;2023-02-11T10:00:14;38.93;;;18.70;;
3689;SDS011;1861;50.240;8.596;2023-02-11T10:02:54;35.23;;;17.90;;
3689;SDS011;1861;50.240;8.596;2023-02-11T10:05:38;40.00;;;18.23;;
3689;SDS011;1861;50.240;8.596;2023-02-11T10:08:19;39.80;;;18.43;;
3689;SDS011;1861;50.240;8.596;2023-02-11T10:10:57;35.80;;;17.83;;
3689;SDS011;1861;50.240;8.596;2023-02-11T10:13:33;37.63;;;18.70;;
3689;SDS011;1861;50.240;8.596;2023-02-11T10:16:12;39.80;;;18.63;;
3689;SDS011;1861;50.240;8.596;2023-02-11T10:18:55;42.03;;;19.00;;
3689;SDS011;1861;50.240;8.596;2023-02-11T10:21:42;35.30;;;16.43;;
3689;SDS011;1861;50.240;8.596;2023-02-11T10:24:17;33.80;;;17.50;;
3689;SDS011;1861;50.240;8.596;2023-02-11T10:26:45;35.90;;;18.80;;
3689;SDS011;1861;50.240;8.596;2023-02-11T10:29:17;34.60;;;17.63;;
3689;SDS011;1861;50.240;8.596;2023-02-11T10:31:57;37.23;;;18.63;;
3689;SDS011;1861;50.240;8.596;2023-02-11T10:34:29;37.73;;;18.47;;
3689;SDS011;1861;50.240;8.596;2023-02-11T10:36:57;40.03;;;17.00;;
3689;SDS011;1861;50.240;8.596;2023-02-11T10:39:25;34.27;;;18.10;;
3689;SDS011;1861;50.240;8.596;2023-02-11T10:41:55;35.20;;;17.90;;
3689;SDS011;1861;50.240;8.596;2023-02-11T10:44:29;38.60;;;18.87;;
3689;SDS011;1861;50.240;8.596;2023-02-11T10:47:00;34.10;;;15.80;;
3689;SDS011;1861;50.240;8.596;2023-02-11T10:49:36;41.40;;;18.40;;
3689;SDS011;1861;50.240;8.596;2023-02-11T10:52:12;37.47;;;15.50;;
3689;SDS011;1861;50.240;8.596;2023-02-11T10:54:57;32.90;;;16.87;;
3689;SDS011;1861;50.240;8.596;2023-02-11T10:57:29;34.47;;;16.63;;
3689;SDS011;1861;50.240;8.596;2023-02-11T11:00:05;34.27;;;16.60;;
3689;SDS011;1861;50.240;8.596;2023-02-11T11:02:51;33.53;;;16.10;;
3689;SDS011;1861;50.240;8.596;2023-02-11T11:05:25;35.80;;;16.63;;
3689;SDS011;1861;50.240;8.596;2023-02-11T11:07:57;38.07;;;15.23;;
3689;SDS011;1861;50.240;8.596;2023-02-11T11:10:28;31.13;;;15.23;;
3689;SDS011;1861;50.240;8.596;2023-02-11T11:13:02;33.83;;;16.30;;
3689;SDS011;1861;50.240;8.596;2023-02-11T11:15:30;35.77;;;16.40;;
3689;SDS011;1861;50.240;8.596;2023-02-11T11:18:08;35.30;;;16.50;;
3689;SDS011;1861;50.240;8.596;2023-02-11T11:20:55;32.77;;;15.97;;
3689;SDS011;1861;50.240;8.596;2023-02-11T11:23:25;37.93;;;16.00;;
3689;SDS011;1861;50.240;8.596;2023-02-11T11:25:59;36.03;;;16.50;;
3689;SDS011;1861;50.240;8.596;2023-02-11T11:28:31;39.50;;;15.10;;
3689;SDS011;1861;50.240;8.596;2023-02-11T11:31:04;35.83;;;17.33;;
3689;SDS011;1861;50.240;8.596;2023-02-11T11:33:39;28.77;;;14.80;;
3689;SDS011;1861;50.240;8.596;2023-02-11T11:36:11;46.83;;;16.93;;
3689;SDS011;1861;50.240;8.596;2023-02-11T11:38:43;30.93;;;15.43;;
3689;SDS011;1861;50.240;8.596;2023-02-11T11:41:19;31.80;;;15.07;;
3689;SDS011;1861;50.240;8.596;2023-02-11T11:43:55;36.07;;;16.70;;
3689;SDS011;1861;50.240;8.596;2023-02-11T11:46:25;32.10;;;15.93;;
3689;SDS011;1861;50.240;8.596;2023-02-11T11:49:01;38.27;;;15.23;;
3689;SDS011;1861;50.240;8.596;2023-02-11T11:51:40;38.20;;;15.97;;
3689;SDS011;1861;50.240;8.596;2023-02-11T11:54:11;33.00;;;16.40;;
3689;SDS011;1861;50.240;8.596;2023-02-11T11:56:44;35.13;;;17.80;;
3689;SDS011;1861;50.240;8.596;2023-02-11T11:59:20;34.97;;;17.07;;
3689;SDS011;1861;50.240;8.596;2023-02-11T12:01:54;33.83;;;16.07;;
3689;SDS011;1861;50.240;8.596;2023-02-11T12:04:53;31.27;;;15.90;;
3689;SDS011;1861;50.240;8.596;2023-02-11T12:07:34;38.33;;;16.50;;
3689;SDS011;1861;50.240;8.596;2023-02-11T12:10:21;36.23;;;17.00;;
3689;SDS011;1861;50.240;8.596;2023-02-11T12:13:00;35.27;;;15.47;;
3689;SDS011;1861;50.240;8.596;2023-02-11T12:15:37;32.00;;;15.73;;
3689;SDS011;1861;50.240;8.596;2023-02-11T12:18:20;32.10;;;15.97;;
3689;SDS011;1861;50.240;8.596;2023-02-11T12:21:09;33.63;;;16.60;;
3689;SDS011;1861;50.240;8.596;2023-02-11T12:23:51;33.30;;;16.40;;
3689;SDS011;1861;50.240;8.596;2023-02-11T12:26:28;36.73;;;17.37;;
3689;SDS011;1861;50.240;8.596;2023-02-11T12:29:04;42.50;;;16.67;;
3689;SDS011;1861;50.240;8.596;2023-02-11T12:31:44;32.90;;;16.07;;
3689;SDS011;1861;50.240;8.596;2023-02-11T12:37:13;32.20;;;15.40;;
3689;SDS011;1861;50.240;8.596;2023-02-11T12:39:50;35.43;;;15.80;;
3689;SDS011;1861;50.240;8.596;2023-02-11T12:42:32;32.90;;;15.10;;
3689;SDS011;1861;50.240;8.596;2023-02-11T12:45:33;35.70;;;14.97;;
3689;SDS011;1861;50.240;8.596;2023-02-11T12:48:17;36.43;;;14.60;;
3689;SDS011;1861;50.240;8.596;2023-02-11T12:51:08;32.73;;;16.20;;
3689;SDS011;1861;50.240;8.596;2023-02-11T12:53:46;35.37;;;15.10;;
3689;SDS011;1861;50.240;8.596;2023-02-11T12:56:25;36.43;;;17.60;;
3689;SDS011;1861;50.240;8.596;2023-02-11T12:58:58;31.80;;;15.00;;
3689;SDS011;1861;50.240;8.596;2023-02-11T13:01:29;36.80;;;16.57;;
3689;SDS011;1861;50.240;8.596;2023-02-11T13:04:03;30.13;;;14.60;;
3689;SDS011;1861;50.240;8.596;2023-02-11T13:06:38;32.47;;;15.60;;
3689;SDS011;1861;50.240;8.596;2023-02-11T13:09:12;28.93;;;15.10;;
3689;SDS011;1861;50.240;8.596;2023-02-11T13:11:48;31.40;;;15.60;;
3689;SDS011;1861;50.240;8.596;2023-02-11T13:14:21;29.20;;;15.50;;
3689;SDS011;1861;50.240;8.596;2023-02-11T13:16:53;31.20;;;15.33;;
3689;SDS011;1861;50.240;8.596;2023-02-11T13:19:24;32.90;;;14.63;;
3689;SDS011;1861;50.240;8.596;2023-02-11T13:22:02;34.37;;;14.37;;
3689;SDS011;1861;50.240;8.596;2023-02-11T13:24:37;26.43;;;14.73;;
3689;SDS011;1861;50.240;8.596;2023-02-11T13:27:14;27.60;;;15.27;;
3689;SDS011;1861;50.240;8.596;2023-02-11T13:33:02;28.17;;;14.07;;
3689;SDS011;1861;50.240;8.596;2023-02-11T13:35:32;24.47;;;13.30;;
3689;SDS011;1861;50.240;8.596;2023-02-11T13:38:03;34.27;;;14.00;;
3689;SDS011;1861;50.240;8.596;2023-02-11T13:40:33;27.70;;;13.30;;
3689;SDS011;1861;50.240;8.596;2023-02-11T13:43:04;30.33;;;12.60;;
3689;SDS011;1861;50.240;8.596;2023-02-11T13:45:46;26.83;;;13.60;;
3689;SDS011;1861;50.240;8.596;2023-02-11T13:48:16;27.17;;;13.20;;
3689;SDS011;1861;50.240;8.596;2023-02-11T13:50:48;25.53;;;13.27;;
3689;SDS011;1861;50.240;8.596;2023-02-11T13:53:19;30.83;;;13.97;;
3689;SDS011;1861;50.240;8.596;2023-02-11T13:55:49;32.17;;;14.30;;
3689;SDS011;1861;50.240;8.596;2023-02-11T13:58:35;25.50;;;12.70;;
3689;SDS011;1861;50.240;8.596;2023-02-11T14:01:14;26.47;;;12.90;;
3689;SDS011;1861;50.240;8.596;2023-02-11T14:04:20;27.57;;;13.37;;
3689;SDS011;1861;50.240;8.596;2023-02-11T14:07:24;24.80;;;13.20;;
3689;SDS011;1861;50.240;8.596;2023-02-11T14:13:18;26.77;;;13.03;;
3689;SDS011;1861;50.240;8.596;2023-02-11T14:16:02;26.77;;;13.50;;
3689;SDS011;1861;50.240;8.596;2023-02-11T14:18:37;23.93;;;12.07;;
3689;SDS011;1861;50.240;8.596;2023-02-11T14:21:29;28.33;;;13.33;;
3689;SDS011;1861;50.240;8.596;2023-02-11T14:27:03;24.97;;;13.20;;
3689;SDS011;1861;50.240;8.596;2023-02-11T14:29:35;28.60;;;13.43;;
3689;SDS011;1861;50.240;8.596;2023-02-11T14:32:09;23.93;;;11.97;;
3689;SDS011;1861;50.240;8.596;2023-02-11T14:34:52;21.37;;;11.40;;
3689;SDS011;1861;50.240;8.596;2023-02-11T14:37:28;23.37;;;11.97;;
3689;SDS011;1861;50.240;8.596;2023-02-11T14:40:08;21.33;;;11.10;;
3689;SDS011;1861;50.240;8.596;2023-02-11T14:42:43;22.40;;;12.00;;
3689;SDS011;1861;50.240;8.596;2023-02-11T14:45:14;28.97;;;12.13;;
3689;SDS011;1861;50.240;8.596;2023-02-11T14:47:47;22.67;;;11.00;;
3689;SDS011;1861;50.240;8.596;2023-02-11T14:50:21;22.63;;;10.77;;
3689;SDS011;1861;50.240;8.596;2023-02-11T14:52:52;22.70;;;11.60;;
3689;SDS011;1861;50.240;8.596;2023-02-11T14:55:26;23.73;;;10.90;;
3689;SDS011;1861;50.240;8.596;2023-02-11T14:58:11;20.17;;;10.80;;
3689;SDS011;1861;50.240;8.596;2023-02-11T15:00:52;22.00;;;10.40;;
3689;SDS011;1861;50.240;8.596;2023-02-11T15:03:29;15.67;;;8.97;;
3689;SDS011;1861;50.240;8.596;2023-02-11T15:06:01;18.57;;;9.97;;
3689;SDS011;1861;50.240;8.596;2023-02-11T15:08:33;19.17;;;10.13;;
3689;SDS011;1861;50.240;8.596;2023-02-11T15:11:06;19.57;;;10.07;;
3689;SDS011;1861;50.240;8.596;2023-02-11T15:13:38;18.33;;;9.43;;
3689;SDS011;1861;50.240;8.596;2023-02-11T15:16:13;15.53;;;8.90;;
3689;SDS011;1861;50.240;8.596;2023-02-11T15:18:46;16.27;;;8.57;;
3689;SDS011;1861;50.240;8.596;2023-02-11T15:21:22;16.37;;;8.70;;
3689;SDS011;1861;50.240;8.596;2023-02-11T15:23:55;16.93;;;8.50;;
3689;SDS011;1861;50.240;8.596;2023-02-11T15:26:25;15.63;;;7.50;;
3689;SDS011;1861;50.240;8.596;2023-02-11T15:28:54;21.10;;;9.43;;
3689;SDS011;1861;50.240;8.596;2023-02-11T15:31:23;15.97;;;7.47;;
3689;SDS011;1861;50.240;8.596;2023-02-11T15:33:53;16.80;;;9.07;;
3689;SDS011;1861;50.240;8.596;2023-02-11T15:36:23;18.37;;;8.83;;
3689;SDS011;1861;50.240;8.596;2023-02-11T15:39:15;15.90;;;8.37;;